Time;durP1;ratioP1;P1;durP2;ratioP2;P2;SDS_P1;SDS_P2;PMS_P1;PMS_P2;Temp;Humidity;BMP_temperature;BMP_pressure;BME280_temperature;BME280_humidity;BME280_pressure;Samples;Min_cycle;Max_cycle;Signal;HPM_P1;HPM_P2
2021/10/10 00:01:12;;;;;;;96.30;49.00;;;;;;;;;;4110353;28;20039;-74
2021/10/10 00:03:13;;;;;;;109.68;54.13;;;;;;;;;;4112466;28;20697;-74
2021/10/10 00:05:14;;;;;;;112.20;52.38;;;;;;;;;;4118463;28;20049;-74
2021/10/10 00:07:15;;;;;;;108.13;51.40;;;;;;;;;;4120538;28;20569;-74
2021/10/10 00:09:17;;;;;;;120.20;62.00;;;;;;;;;;4100208;28;20043;-75
2021/10/10 00:11:18;;;;;;;112.05;57.00;;;;;;;;;;4102989;28;20590;-74
2021/10/10 00:13:19;;;;;;;132.45;65.47;;;;;;;;;;4098283;28;20057;-74
2021/10/10 00:15:20;;;;;;;122.28;62.53;;;;;;;;;;4107304;28;20046;-75
2021/10/10 00:17:21;;;;;;;125.40;60.92;;;;;;;;;;4110419;28;20054;-75
2021/10/10 00:19:22;;;;;;;141.93;64.32;;;;;;;;;;4108075;28;20663;-75
2021/10/10 00:21:24;;;;;;;132.15;70.05;;;;;;;;;;4112620;28;20042;-75
2021/10/10 00:23:25;;;;;;;142.15;76.10;;;;;;;;;;4096407;28;20039;-74
2021/10/10 00:25:26;;;;;;;151.57;76.10;;;;;;;;;;4113310;28;20043;-75
2021/10/10 00:27:27;;;;;;;143.98;70.53;;;;;;;;;;4110699;28;20405;-75
2021/10/10 00:29:28;;;;;;;145.20;70.13;;;;;;;;;;4109609;28;20126;-74
2021/10/10 00:31:29;;;;;;;141.30;73.28;;;;;;;;;;4128727;28;20034;-74
2021/10/10 00:33:30;;;;;;;144.38;72.75;;;;;;;;;;4113562;28;20115;-75
2021/10/10 00:35:33;;;;;;;126.35;65.05;;;;;;;;;;4113074;28;20037;-74
2021/10/10 00:37:34;;;;;;;130.13;65.22;;;;;;;;;;4117767;28;20518;-74
2021/10/10 00:39:35;;;;;;;151.77;69.18;;;;;;;;;;4112925;28;20623;-75
2021/10/10 00:41:37;;;;;;;138.93;71.30;;;;;;;;;;4120383;28;20046;-74
2021/10/10 00:43:38;;;;;;;144.95;69.85;;;;;;;;;;4111242;28;20466;-74
2021/10/10 00:45:45;;;;;;;118.85;62.25;;;;;;;;;;4110802;28;20035;-75
2021/10/10 00:47:47;;;;;;;142.57;71.00;;;;;;;;;;4112967;28;20047;-74
2021/10/10 00:49:48;;;;;;;139.73;69.07;;;;;;;;;;4107806;28;20514;-74
2021/10/10 00:51:49;;;;;;;147.63;69.57;;;;;;;;;;4115662;28;20066;-75
2021/10/10 00:53:50;;;;;;;133.27;68.07;;;;;;;;;;4135655;28;20046;-75
2021/10/10 00:55:55;;;;;;;146.63;72.32;;;;;;;;;;4110193;28;20043;-74
2021/10/10 00:57:57;;;;;;;128.02;63.25;;;;;;;;;;4114932;28;20043;-74
2021/10/10 00:59:59;;;;;;;125.95;56.60;;;;;;;;;;4109139;28;20043;-74
2021/10/10 01:02:00;;;;;;;125.85;67.07;;;;;;;;;;4116695;28;20560;-74
2021/10/10 01:04:02;;;;;;;133.80;69.15;;;;;;;;;;4122373;28;20093;-74
2021/10/10 01:06:04;;;;;;;129.00;60.90;;;;;;;;;;4107312;28;20051;-74
2021/10/10 01:08:05;;;;;;;113.75;56.17;;;;;;;;;;4100627;28;20129;-74
2021/10/10 01:10:08;;;;;;;124.85;59.00;;;;;;;;;;4115093;28;20403;-74
2021/10/10 01:12:09;;;;;;;144.00;63.40;;;;;;;;;;4116098;28;20039;-74
2021/10/10 01:14:11;;;;;;;107.85;52.88;;;;;;;;;;4105392;28;20043;-74
2021/10/10 01:16:12;;;;;;;127.35;64.93;;;;;;;;;;4112155;28;20059;-75
2021/10/10 01:18:22;;;;;;;109.13;54.97;;;;;;;;;;4101814;28;20519;-75
2021/10/10 01:20:27;;;;;;;139.85;70.22;;;;;;;;;;4129867;28;20031;-74
2021/10/10 01:22:29;;;;;;;108.30;55.83;;;;;;;;;;4128797;28;20045;-75
2021/10/10 01:24:31;;;;;;;111.73;59.70;;;;;;;;;;4127635;28;20031;-75
2021/10/10 01:26:32;;;;;;;124.90;62.45;;;;;;;;;;4113394;28;20662;-74
2021/10/10 01:28:34;;;;;;;108.97;61.08;;;;;;;;;;4129392;28;20423;-75
2021/10/10 01:30:35;;;;;;;117.68;57.88;;;;;;;;;;4114357;28;20613;-74
2021/10/10 01:32:36;;;;;;;115.45;60.13;;;;;;;;;;4099310;28;20575;-74
2021/10/10 01:34:42;;;;;;;141.15;70.63;;;;;;;;;;4123612;28;20070;-74
2021/10/10 01:36:43;;;;;;;136.27;61.60;;;;;;;;;;4114562;28;20038;-74
2021/10/10 01:38:44;;;;;;;128.57;63.90;;;;;;;;;;4115451;28;20066;-73
2021/10/10 01:40:46;;;;;;;121.93;58.88;;;;;;;;;;4114350;28;20043;-74
2021/10/10 01:42:47;;;;;;;109.93;61.15;;;;;;;;;;4122359;28;20054;-73
2021/10/10 01:44:48;;;;;;;109.32;57.42;;;;;;;;;;4105076;28;20494;-74
2021/10/10 01:46:49;;;;;;;113.60;57.20;;;;;;;;;;4118341;28;20056;-74
2021/10/10 01:48:50;;;;;;;127.82;60.30;;;;;;;;;;4120029;28;20482;-74
2021/10/10 01:50:52;;;;;;;125.72;58.67;;;;;;;;;;4107636;28;20086;-74
2021/10/10 01:52:53;;;;;;;142.30;67.22;;;;;;;;;;4121947;28;20109;-75
2021/10/10 01:54:54;;;;;;;112.10;57.45;;;;;;;;;;4112424;28;20071;-74
2021/10/10 01:56:55;;;;;;;119.85;59.55;;;;;;;;;;4112790;28;20573;-74
2021/10/10 01:58:57;;;;;;;114.95;59.13;;;;;;;;;;4113111;28;20070;-75
2021/10/10 02:00:58;;;;;;;123.22;57.95;;;;;;;;;;4129901;28;20645;-79
2021/10/10 02:02:59;;;;;;;126.65;55.03;;;;;;;;;;4112492;28;20066;-78
2021/10/10 02:05:00;;;;;;;136.50;63.13;;;;;;;;;;4107925;28;20380;-79
2021/10/10 02:07:02;;;;;;;133.10;63.70;;;;;;;;;;4113210;28;20549;-79
2021/10/10 02:09:03;;;;;;;127.50;58.28;;;;;;;;;;4113876;28;20117;-80
2021/10/10 02:11:04;;;;;;;117.18;55.38;;;;;;;;;;4111369;28;20491;-80
2021/10/10 02:13:05;;;;;;;110.90;55.60;;;;;;;;;;4114338;28;20031;-79
2021/10/10 02:15:07;;;;;;;110.60;54.80;;;;;;;;;;4120500;28;20029;-79
2021/10/10 02:17:08;;;;;;;109.78;57.70;;;;;;;;;;4116943;28;20043;-79
2021/10/10 02:19:09;;;;;;;112.05;52.42;;;;;;;;;;4122755;28;20039;-79
2021/10/10 02:21:10;;;;;;;111.95;54.53;;;;;;;;;;4100359;28;20578;-78
2021/10/10 02:23:11;;;;;;;126.97;54.17;;;;;;;;;;4121966;28;20097;-80
2021/10/10 02:25:13;;;;;;;107.50;49.65;;;;;;;;;;4099433;28;20047;-79
2021/10/10 02:27:14;;;;;;;112.25;51.42;;;;;;;;;;4113908;28;20074;-79
2021/10/10 02:29:15;;;;;;;91.20;44.30;;;;;;;;;;4129817;28;20058;-79
2021/10/10 02:31:17;;;;;;;101.15;51.80;;;;;;;;;;4113829;28;20034;-79
2021/10/10 02:33:18;;;;;;;104.32;51.80;;;;;;;;;;4099902;28;20058;-79
2021/10/10 02:35:19;;;;;;;115.65;55.55;;;;;;;;;;4120472;28;20113;-79
2021/10/10 02:37:21;;;;;;;106.45;49.05;;;;;;;;;;4119090;28;20116;-79
2021/10/10 02:39:22;;;;;;;97.85;48.35;;;;;;;;;;4105904;28;20043;-79
2021/10/10 02:41:23;;;;;;;111.30;51.22;;;;;;;;;;4119259;28;20089;-79
2021/10/10 02:43:24;;;;;;;95.40;45.88;;;;;;;;;;4122694;28;20038;-79
2021/10/10 02:45:26;;;;;;;95.05;48.53;;;;;;;;;;4120606;28;20046;-79
2021/10/10 02:47:27;;;;;;;92.57;46.55;;;;;;;;;;4114466;28;20042;-80
2021/10/10 02:49:28;;;;;;;94.95;47.35;;;;;;;;;;4111405;28;20526;-80
2021/10/10 02:51:30;;;;;;;93.30;42.40;;;;;;;;;;4114037;28;20098;-80
2021/10/10 02:53:31;;;;;;;87.67;44.30;;;;;;;;;;4113073;28;20085;-80
2021/10/10 02:55:33;;;;;;;85.35;45.55;;;;;;;;;;4113713;28;20073;-79
2021/10/10 02:57:34;;;;;;;92.63;46.90;;;;;;;;;;4110756;28;20564;-79
2021/10/10 02:59:35;;;;;;;91.22;46.60;;;;;;;;;;4111888;28;20035;-79
2021/10/10 03:01:36;;;;;;;81.82;40.70;;;;;;;;;;4108473;28;20513;-80
2021/10/10 03:03:37;;;;;;;93.28;47.40;;;;;;;;;;4117059;28;20397;-79
2021/10/10 03:05:38;;;;;;;72.20;40.15;;;;;;;;;;4112559;28;20069;-78
2021/10/10 03:07:39;;;;;;;96.30;42.53;;;;;;;;;;4109952;28;20047;-79
2021/10/10 03:09:40;;;;;;;78.38;38.45;;;;;;;;;;4096367;28;20443;-77
2021/10/10 03:11:42;;;;;;;87.20;43.60;;;;;;;;;;4113559;28;20039;-78
2021/10/10 03:13:43;;;;;;;77.22;41.38;;;;;;;;;;4113886;28;20129;-80
2021/10/10 03:15:44;;;;;;;88.45;44.60;;;;;;;;;;4115538;28;20402;-80
2021/10/10 03:17:45;;;;;;;76.93;38.70;;;;;;;;;;4098886;28;20035;-79
2021/10/10 03:19:46;;;;;;;76.38;37.42;;;;;;;;;;4123489;28;20066;-79
2021/10/10 03:21:47;;;;;;;97.00;49.10;;;;;;;;;;4129125;28;20490;-79
2021/10/10 03:23:48;;;;;;;88.00;42.35;;;;;;;;;;4113645;28;20186;-80
2021/10/10 03:25:50;;;;;;;91.43;46.00;;;;;;;;;;4114447;28;20562;-79
2021/10/10 03:27:51;;;;;;;108.78;44.88;;;;;;;;;;4097923;28;20063;-79
2021/10/10 03:29:53;;;;;;;96.82;47.15;;;;;;;;;;4112281;28;20122;-79
2021/10/10 03:31:55;;;;;;;78.40;40.60;;;;;;;;;;4119921;28;20038;-80
2021/10/10 03:33:56;;;;;;;93.82;46.22;;;;;;;;;;4118962;28;20174;-79
2021/10/10 03:35:57;;;;;;;95.97;45.25;;;;;;;;;;4098755;28;20710;-79
2021/10/10 03:37:59;;;;;;;88.57;45.13;;;;;;;;;;4119837;28;20038;-78
2021/10/10 03:40:00;;;;;;;87.63;43.30;;;;;;;;;;4111376;28;20047;-80
2021/10/10 03:42:01;;;;;;;89.70;45.47;;;;;;;;;;4114434;28;20038;-80
2021/10/10 03:44:02;;;;;;;89.22;42.65;;;;;;;;;;4099274;28;20444;-77
2021/10/10 03:46:03;;;;;;;77.50;40.72;;;;;;;;;;4122102;28;20594;-80
2021/10/10 03:48:04;;;;;;;89.65;43.65;;;;;;;;;;4112604;28;20599;-80
2021/10/10 03:50:06;;;;;;;95.55;43.70;;;;;;;;;;4126962;28;20052;-79
2021/10/10 03:52:08;;;;;;;86.10;41.15;;;;;;;;;;4098514;28;20035;-80
2021/10/10 03:56:25;;;;;;;93.75;45.15;;;;;;;;;;4114468;28;20152;-80
2021/10/10 03:58:26;;;;;;;83.57;41.40;;;;;;;;;;4119602;28;20551;-80
2021/10/10 04:00:29;;;;;;;82.60;41.13;;;;;;;;;;4088151;28;20414;-80
2021/10/10 04:02:30;;;;;;;78.10;38.57;;;;;;;;;;4102021;28;20031;-80
2021/10/10 04:04:34;;;;;;;67.32;37.17;;;;;;;;;;4121568;28;20676;-80
2021/10/10 04:06:35;;;;;;;73.20;38.00;;;;;;;;;;4128274;28;20058;-81
2021/10/10 04:08:43;;;;;;;99.00;45.35;;;;;;;;;;4114108;28;20070;-81
2021/10/10 04:10:44;;;;;;;98.07;46.72;;;;;;;;;;4097997;28;20216;-81
2021/10/10 04:12:46;;;;;;;108.40;44.95;;;;;;;;;;4122216;28;20046;-81
2021/10/10 04:14:47;;;;;;;105.65;44.28;;;;;;;;;;4111978;28;20463;-79
2021/10/10 04:16:48;;;;;;;88.68;44.85;;;;;;;;;;4105090;28;20511;-79
2021/10/10 04:18:49;;;;;;;92.45;44.03;;;;;;;;;;4098794;28;20035;-80
2021/10/10 04:20:50;;;;;;;109.90;49.08;;;;;;;;;;4112682;28;20398;-80
2021/10/10 04:22:51;;;;;;;76.90;39.67;;;;;;;;;;4113766;28;20215;-79
2021/10/10 04:24:52;;;;;;;79.40;40.72;;;;;;;;;;4105856;28;20529;-79
2021/10/10 04:26:54;;;;;;;95.43;46.88;;;;;;;;;;4120562;28;20034;-79
2021/10/10 04:28:55;;;;;;;98.88;47.92;;;;;;;;;;4129626;28;20037;-79
2021/10/10 04:30:56;;;;;;;107.18;47.45;;;;;;;;;;4110088;28;20646;-79
2021/10/10 04:32:57;;;;;;;103.28;48.17;;;;;;;;;;4116474;28;20042;-80
2021/10/10 04:34:58;;;;;;;110.43;49.38;;;;;;;;;;4128050;28;20252;-80
2021/10/10 04:37:00;;;;;;;108.80;50.47;;;;;;;;;;4115485;28;20493;-80
2021/10/10 04:39:01;;;;;;;103.65;48.42;;;;;;;;;;4116627;28;20449;-78
2021/10/10 04:41:02;;;;;;;98.25;46.97;;;;;;;;;;4099503;28;20823;-80
2021/10/10 04:43:07;;;;;;;103.68;47.20;;;;;;;;;;4111450;28;20446;-81
2021/10/10 04:45:08;;;;;;;87.22;44.20;;;;;;;;;;4103074;28;20035;-81
2021/10/10 04:47:09;;;;;;;94.60;44.75;;;;;;;;;;4114829;28;20133;-80
2021/10/10 04:49:10;;;;;;;95.47;42.80;;;;;;;;;;4130933;28;20041;-80
2021/10/10 04:51:12;;;;;;;83.30;44.33;;;;;;;;;;4108035;28;20040;-82
2021/10/10 04:53:13;;;;;;;86.72;41.58;;;;;;;;;;4107662;28;20595;-81
2021/10/10 04:55:15;;;;;;;80.68;41.10;;;;;;;;;;4114766;28;20049;-80
2021/10/10 04:57:17;;;;;;;83.93;43.22;;;;;;;;;;4110905;28;20051;-81
2021/10/10 04:59:18;;;;;;;89.68;44.33;;;;;;;;;;4115771;28;20035;-79
2021/10/10 05:01:19;;;;;;;86.50;40.85;;;;;;;;;;4126886;28;20477;-81
2021/10/10 05:03:21;;;;;;;83.18;42.78;;;;;;;;;;4114903;28;20039;-82
2021/10/10 05:05:22;;;;;;;91.70;44.97;;;;;;;;;;4098354;28;21962;-81
2021/10/10 05:07:23;;;;;;;90.68;41.47;;;;;;;;;;4115790;28;20048;-80
2021/10/10 05:09:24;;;;;;;84.68;40.35;;;;;;;;;;4112782;28;20509;-81
2021/10/10 05:11:26;;;;;;;86.03;41.28;;;;;;;;;;4116961;28;20062;-81
2021/10/10 05:13:27;;;;;;;135.93;50.22;;;;;;;;;;4108748;28;20487;-79
2021/10/10 05:15:28;;;;;;;161.20;50.15;;;;;;;;;;4120929;28;20165;-81
2021/10/10 05:17:29;;;;;;;208.30;55.95;;;;;;;;;;4115639;28;20039;-81
2021/10/10 05:19:30;;;;;;;168.27;50.40;;;;;;;;;;4115874;28;20043;-82
2021/10/10 05:21:31;;;;;;;216.15;60.55;;;;;;;;;;4112214;28;20069;-80
2021/10/10 05:23:32;;;;;;;222.93;57.53;;;;;;;;;;4111462;28;20470;-82
2021/10/10 05:25:34;;;;;;;195.68;56.30;;;;;;;;;;4115367;28;20077;-80
2021/10/10 05:27:35;;;;;;;224.38;59.45;;;;;;;;;;4123466;28;20061;-81
2021/10/10 05:29:36;;;;;;;218.90;54.35;;;;;;;;;;4115003;28;20039;-81
2021/10/10 05:31:37;;;;;;;151.35;49.55;;;;;;;;;;4115501;28;20043;-81
2021/10/10 05:33:38;;;;;;;251.35;61.83;;;;;;;;;;4114157;28;20470;-80
2021/10/10 05:35:40;;;;;;;240.10;63.30;;;;;;;;;;4111763;28;20042;-80
2021/10/10 05:37:41;;;;;;;171.70;52.63;;;;;;;;;;4103917;28;20470;-81
2021/10/10 05:39:42;;;;;;;244.10;64.45;;;;;;;;;;4109109;28;20555;-81
2021/10/10 05:41:43;;;;;;;247.68;60.90;;;;;;;;;;4120419;28;20110;-81
2021/10/10 05:43:44;;;;;;;125.78;44.50;;;;;;;;;;4112402;28;20168;-79
2021/10/10 05:45:45;;;;;;;231.88;57.47;;;;;;;;;;4115332;28;20069;-81
2021/10/10 05:47:47;;;;;;;196.48;55.30;;;;;;;;;;4118279;28;20506;-81
2021/10/10 05:49:48;;;;;;;296.35;67.32;;;;;;;;;;4120655;28;20517;-78
2021/10/10 05:51:50;;;;;;;252.20;63.85;;;;;;;;;;4115719;28;20463;-81
2021/10/10 05:53:51;;;;;;;141.73;47.22;;;;;;;;;;4095580;28;20043;-81
2021/10/10 05:56:00;;;;;;;109.25;44.28;;;;;;;;;;4112656;28;20069;-79
2021/10/10 05:58:03;;;;;;;261.60;65.65;;;;;;;;;;4114682;28;20371;-79
2021/10/10 06:00:06;;;;;;;188.05;58.53;;;;;;;;;;4112812;28;20058;-81
2021/10/10 06:02:07;;;;;;;382.92;79.03;;;;;;;;;;4109356;28;20051;-81
2021/10/10 06:04:08;;;;;;;292.23;66.20;;;;;;;;;;4113747;28;20615;-79
2021/10/10 06:06:09;;;;;;;444.67;80.45;;;;;;;;;;4116727;28;20031;-81
2021/10/10 06:08:10;;;;;;;240.80;63.38;;;;;;;;;;4118361;28;20074;-81
2021/10/10 06:10:12;;;;;;;180.75;53.33;;;;;;;;;;4088028;28;20036;-81
2021/10/10 06:12:13;;;;;;;136.50;51.05;;;;;;;;;;4105514;28;20110;-80
2021/10/10 06:14:14;;;;;;;127.20;51.38;;;;;;;;;;4100949;28;20031;-80
2021/10/10 06:16:15;;;;;;;199.85;60.25;;;;;;;;;;4122293;28;20065;-83
2021/10/10 06:18:16;;;;;;;153.00;50.95;;;;;;;;;;4100764;28;20158;-81
2021/10/10 06:20:18;;;;;;;177.40;52.65;;;;;;;;;;4098031;28;20073;-82
2021/10/10 06:22:19;;;;;;;307.75;71.15;;;;;;;;;;4114079;28;20039;-80
2021/10/10 06:24:20;;;;;;;335.85;71.30;;;;;;;;;;4123619;28;20038;-80
2021/10/10 06:26:22;;;;;;;379.65;77.65;;;;;;;;;;4113521;28;20049;-81
2021/10/10 06:28:23;;;;;;;178.60;59.50;;;;;;;;;;4120609;28;20042;-79
2021/10/10 06:30:24;;;;;;;214.95;66.88;;;;;;;;;;4101415;28;20601;-79
2021/10/10 06:32:25;;;;;;;257.25;72.53;;;;;;;;;;4116042;28;20043;-80
2021/10/10 06:34:26;;;;;;;183.60;66.13;;;;;;;;;;4113753;28;20040;-80
2021/10/10 06:36:27;;;;;;;269.30;76.07;;;;;;;;;;4104809;28;20074;-79
2021/10/10 06:38:29;;;;;;;215.13;73.40;;;;;;;;;;4106389;28;20100;-81
2021/10/10 06:40:30;;;;;;;265.67;78.78;;;;;;;;;;4129198;28;20050;-79
2021/10/10 06:42:31;;;;;;;244.40;76.32;;;;;;;;;;4114047;28;20048;-81
2021/10/10 06:44:34;;;;;;;240.82;75.60;;;;;;;;;;4114218;28;20125;-80
2021/10/10 06:46:35;;;;;;;218.40;73.78;;;;;;;;;;4128773;28;20042;-80
2021/10/10 06:48:36;;;;;;;218.82;72.68;;;;;;;;;;4113685;28;20112;-79
2021/10/10 06:50:37;;;;;;;240.02;76.18;;;;;;;;;;4112240;28;20513;-81
2021/10/10 06:52:38;;;;;;;168.55;69.18;;;;;;;;;;4113840;28;20034;-80
2021/10/10 06:54:40;;;;;;;228.20;75.15;;;;;;;;;;4114849;28;20149;-80
2021/10/10 06:56:41;;;;;;;293.92;83.93;;;;;;;;;;4096526;28;20487;-79
2021/10/10 06:58:43;;;;;;;137.18;56.47;;;;;;;;;;4109123;28;20113;-80
2021/10/10 07:00:45;;;;;;;203.15;75.93;;;;;;;;;;4104538;28;20522;-80
2021/10/10 07:02:46;;;;;;;220.52;75.50;;;;;;;;;;4105606;28;20130;-80
2021/10/10 07:04:47;;;;;;;330.05;86.47;;;;;;;;;;4119221;28;20054;-80
2021/10/10 07:06:49;;;;;;;367.42;88.05;;;;;;;;;;4111840;28;20046;-80
2021/10/10 07:08:50;;;;;;;224.00;73.35;;;;;;;;;;4106741;28;20042;-82
2021/10/10 07:10:51;;;;;;;299.00;83.22;;;;;;;;;;4127907;28;20156;-80
2021/10/10 07:12:52;;;;;;;298.70;84.30;;;;;;;;;;4115045;28;20058;-80
2021/10/10 07:14:53;;;;;;;287.88;83.55;;;;;;;;;;4099512;28;20055;-80
2021/10/10 07:16:54;;;;;;;169.35;67.85;;;;;;;;;;4124007;28;20405;-81
2021/10/10 07:18:57;;;;;;;176.18;74.63;;;;;;;;;;4098777;28;20039;-80
2021/10/10 07:21:07;;;;;;;177.20;75.22;;;;;;;;;;4111585;28;20045;-80
2021/10/10 07:23:14;;;;;;;160.95;75.40;;;;;;;;;;4116998;28;20053;-81
2021/10/10 07:25:15;;;;;;;154.77;73.03;;;;;;;;;;4111496;28;20058;-80
2021/10/10 07:27:16;;;;;;;161.80;75.70;;;;;;;;;;4107813;28;20053;-81
2021/10/10 07:29:18;;;;;;;150.60;71.75;;;;;;;;;;4113922;28;20562;-81
2021/10/10 07:31:19;;;;;;;143.68;72.43;;;;;;;;;;4120288;28;20049;-80
2021/10/10 07:33:20;;;;;;;140.18;71.50;;;;;;;;;;4102442;28;20035;-80
2021/10/10 07:35:21;;;;;;;114.00;60.08;;;;;;;;;;4122401;28;20042;-80
2021/10/10 07:37:23;;;;;;;124.75;60.83;;;;;;;;;;4112883;28;20045;-81
2021/10/10 07:39:24;;;;;;;139.75;69.10;;;;;;;;;;4126167;28;20057;-80
2021/10/10 07:41:25;;;;;;;133.32;69.80;;;;;;;;;;4113207;28;20035;-80
2021/10/10 07:43:27;;;;;;;131.90;70.22;;;;;;;;;;4122196;28;20046;-80
2021/10/10 07:45:30;;;;;;;134.23;70.10;;;;;;;;;;4082907;28;20063;-81
2021/10/10 07:47:47;;;;;;;130.73;70.63;;;;;;;;;;4116302;28;20062;-80
2021/10/10 07:49:49;;;;;;;123.07;64.13;;;;;;;;;;4123631;28;20670;-81
2021/10/10 07:51:50;;;;;;;126.30;66.65;;;;;;;;;;4124357;28;20053;-80
2021/10/10 07:53:51;;;;;;;136.13;69.93;;;;;;;;;;4098873;28;20202;-81
2021/10/10 07:55:52;;;;;;;138.65;67.55;;;;;;;;;;4115440;28;20442;-80
2021/10/10 07:57:53;;;;;;;137.43;68.32;;;;;;;;;;4110057;28;20200;-80
2021/10/10 07:59:54;;;;;;;118.00;62.30;;;;;;;;;;4097252;28;20051;-81
2021/10/10 08:01:56;;;;;;;128.00;67.05;;;;;;;;;;4128884;28;20061;-80
2021/10/10 08:03:57;;;;;;;134.18;72.40;;;;;;;;;;4130211;28;20050;-79
2021/10/10 08:05:58;;;;;;;138.85;73.45;;;;;;;;;;4114233;28;20039;-81
2021/10/10 08:07:59;;;;;;;141.05;75.25;;;;;;;;;;4114775;28;20046;-80
2021/10/10 08:10:00;;;;;;;153.50;75.80;;;;;;;;;;4124654;28;20479;-79
2021/10/10 08:12:02;;;;;;;158.30;78.13;;;;;;;;;;4112717;28;20046;-79
2021/10/10 08:14:04;;;;;;;146.60;73.85;;;;;;;;;;4113652;28;20044;-80
2021/10/10 08:16:05;;;;;;;132.48;69.70;;;;;;;;;;4115194;28;20066;-80
2021/10/10 08:18:06;;;;;;;149.50;78.95;;;;;;;;;;4114344;28;20157;-81
2021/10/10 08:20:08;;;;;;;154.18;78.00;;;;;;;;;;4114774;28;20062;-81
2021/10/10 08:22:10;;;;;;;135.27;74.88;;;;;;;;;;4112454;28;20042;-80
2021/10/10 08:24:12;;;;;;;144.13;79.25;;;;;;;;;;4115148;28;20572;-81
2021/10/10 08:26:13;;;;;;;153.35;83.07;;;;;;;;;;4107981;28;20071;-81
2021/10/10 08:28:15;;;;;;;158.38;86.00;;;;;;;;;;4107055;28;20409;-81
2021/10/10 08:30:17;;;;;;;149.93;83.43;;;;;;;;;;4111866;28;20034;-80
2021/10/10 08:32:18;;;;;;;136.70;77.10;;;;;;;;;;4113376;28;20038;-81
2021/10/10 08:34:20;;;;;;;176.98;95.57;;;;;;;;;;4115306;28;20071;-82
2021/10/10 08:36:21;;;;;;;168.38;91.40;;;;;;;;;;4099575;28;20553;-78
2021/10/10 08:38:22;;;;;;;143.05;82.72;;;;;;;;;;4115148;28;20047;-81
2021/10/10 08:40:23;;;;;;;159.07;88.22;;;;;;;;;;4099551;28;20457;-80
2021/10/10 08:42:32;;;;;;;137.00;77.65;;;;;;;;;;4100058;28;20043;-81
2021/10/10 08:44:36;;;;;;;150.63;85.15;;;;;;;;;;4115020;28;20050;-79
2021/10/10 08:46:39;;;;;;;143.88;80.82;;;;;;;;;;4099255;28;20127;-82
2021/10/10 08:48:40;;;;;;;137.38;82.45;;;;;;;;;;4098996;28;20043;-81
2021/10/10 08:50:42;;;;;;;132.80;78.70;;;;;;;;;;4123195;28;20043;-79
2021/10/10 08:52:44;;;;;;;116.68;71.13;;;;;;;;;;4130674;28;20490;-81
2021/10/10 08:54:45;;;;;;;115.43;73.03;;;;;;;;;;4130540;28;20048;-80
2021/10/10 08:56:47;;;;;;;126.13;77.53;;;;;;;;;;4113250;28;20043;-81
2021/10/10 08:58:48;;;;;;;124.45;74.97;;;;;;;;;;4101735;28;20035;-81
2021/10/10 09:01:01;;;;;;;118.75;71.25;;;;;;;;;;4114862;28;20066;-81
2021/10/10 09:03:10;;;;;;;111.50;71.67;;;;;;;;;;4115550;28;20451;-80
2021/10/10 09:05:11;;;;;;;123.38;76.53;;;;;;;;;;4122164;28;20031;-79
2021/10/10 09:07:12;;;;;;;126.05;75.35;;;;;;;;;;4116565;28;20413;-80
2021/10/10 09:09:46;;;;;;;126.15;75.95;;;;;;;;;;4100678;28;20122;-79
2021/10/10 09:11:47;;;;;;;119.28;74.63;;;;;;;;;;4056192;28;20057;-79
2021/10/10 09:14:01;;;;;;;111.22;71.60;;;;;;;;;;4112910;28;20142;-79
2021/10/10 09:16:04;;;;;;;120.43;75.22;;;;;;;;;;4108303;28;20038;-80
2021/10/10 09:18:06;;;;;;;;;;;;;;;;;;4112918;28;20043;-79
2021/10/10 09:20:07;;;;;;;108.22;68.03;;;;;;;;;;4121305;28;20164;-79
2021/10/10 09:22:11;;;;;;;104.47;68.18;;;;;;;;;;4127994;28;20472;-79
2021/10/10 09:24:12;;;;;;;;;;;;;;;;;;4128577;28;20053;-79
2021/10/10 09:26:14;;;;;;;90.95;61.38;;;;;;;;;;4110973;28;19918;-79
2021/10/10 09:28:25;;;;;;;86.25;60.75;;;;;;;;;;4114445;28;20793;-80
2021/10/10 09:30:26;;;;;;;84.53;59.42;;;;;;;;;;4111378;28;20427;-79
2021/10/10 09:32:27;;;;;;;83.57;59.45;;;;;;;;;;4113628;28;20131;-80
2021/10/10 09:34:29;;;;;;;80.63;60.45;;;;;;;;;;4113236;28;20423;-79
2021/10/10 09:36:30;;;;;;;76.90;59.38;;;;;;;;;;4110700;28;20053;-81
2021/10/10 09:38:50;;;;;;;79.72;57.92;;;;;;;;;;4111902;28;20043;-79
2021/10/10 09:40:59;;;;;;;77.80;59.53;;;;;;;;;;4123427;28;20475;-80
2021/10/10 09:43:03;;;;;;;84.82;62.08;;;;;;;;;;4121831;28;20073;-80
2021/10/10 09:45:26;;;;;;;78.95;56.92;;;;;;;;;;4111940;28;20035;-80
2021/10/10 09:47:56;;;;;;;77.35;58.13;;;;;;;;;;4113041;28;20069;-80
2021/10/10 09:50:08;;;;;;;82.65;59.20;;;;;;;;;;4127058;28;20420;-80
2021/10/10 09:52:09;;;;;;;94.85;70.10;;;;;;;;;;4100625;28;20497;-78
2021/10/10 09:54:10;;;;;;;82.65;62.42;;;;;;;;;;4111498;28;20038;-81
2021/10/10 09:56:11;;;;;;;86.28;68.38;;;;;;;;;;4115164;28;20514;-78
2021/10/10 09:58:12;;;;;;;75.63;60.58;;;;;;;;;;4110566;28;20647;-80
2021/10/10 10:00:24;;;;;;;78.40;60.63;;;;;;;;;;4113431;28;20395;-80
2021/10/10 10:03:06;;;;;;;73.22;61.60;;;;;;;;;;4101559;28;20047;-80
2021/10/10 10:05:07;;;;;;;62.30;52.00;;;;;;;;;;4102713;28;20533;-81
2021/10/10 10:07:10;;;;;;;57.80;50.05;;;;;;;;;;4119470;28;20038;-79
2021/10/10 10:09:13;;;;;;;61.15;50.38;;;;;;;;;;4127139;28;20153;-80
2021/10/10 10:11:17;;;;;;;58.22;49.83;;;;;;;;;;4120448;28;20078;-79
2021/10/10 10:13:18;;;;;;;55.35;46.55;;;;;;;;;;4108287;28;20479;-77
2021/10/10 10:15:26;;;;;;;52.78;42.17;;;;;;;;;;4115931;28;20477;-79
2021/10/10 10:17:27;;;;;;;51.03;42.30;;;;;;;;;;4115448;28;20045;-79
2021/10/10 10:19:29;;;;;;;55.58;44.05;;;;;;;;;;4111024;28;20599;-78
2021/10/10 10:21:31;;;;;;;48.83;39.58;;;;;;;;;;4111285;28;20418;-80
2021/10/10 10:23:34;;;;;;;44.80;37.95;;;;;;;;;;4113212;28;20058;-78
2021/10/10 10:25:35;;;;;;;46.63;39.45;;;;;;;;;;4126325;28;20046;-78
2021/10/10 10:27:36;;;;;;;69.15;53.55;;;;;;;;;;4114268;28;20101;-78
2021/10/10 10:29:39;;;;;;;51.15;40.92;;;;;;;;;;4113313;28;20046;-79
2021/10/10 10:31:43;;;;;;;48.72;38.97;;;;;;;;;;4113069;28;20039;-79
2021/10/10 10:33:45;;;;;;;48.70;36.90;;;;;;;;;;4120713;28;20144;-78
2021/10/10 10:35:48;;;;;;;43.65;35.95;;;;;;;;;;4109390;28;20442;-79
2021/10/10 10:37:54;;;;;;;48.20;34.58;;;;;;;;;;4108341;28;20039;-79
2021/10/10 10:39:55;;;;;;;42.17;36.63;;;;;;;;;;4118321;28;20040;-78
2021/10/10 10:41:56;;;;;;;47.80;36.20;;;;;;;;;;4110622;28;20066;-78
2021/10/10 10:43:57;;;;;;;43.67;33.78;;;;;;;;;;4107579;28;20117;-78
2021/10/10 10:46:08;;;;;;;41.15;33.80;;;;;;;;;;4125632;28;20061;-78
2021/10/10 10:48:27;;;;;;;42.95;33.63;;;;;;;;;;4114647;28;20038;-78
2021/10/10 10:50:30;;;;;;;47.38;36.05;;;;;;;;;;4111408;28;20051;-75
2021/10/10 10:52:36;;;;;;;44.60;32.92;;;;;;;;;;4114606;28;20031;-78
2021/10/10 10:54:38;;;;;;;51.67;37.15;;;;;;;;;;4097554;28;20035;-78
2021/10/10 10:56:40;;;;;;;46.30;36.42;;;;;;;;;;4121881;28;20050;-78
2021/10/10 10:58:45;;;;;;;46.08;37.95;;;;;;;;;;4122639;28;20030;-76
2021/10/10 11:00:48;;;;;;;46.65;33.58;;;;;;;;;;4125742;28;20093;-77
2021/10/10 11:03:03;;;;;;;41.92;34.50;;;;;;;;;;4111363;28;20516;-76
2021/10/10 11:05:04;;;;;;;47.53;36.85;;;;;;;;;;4128015;28;20034;-78
2021/10/10 11:07:09;;;;;;;51.95;37.88;;;;;;;;;;4111828;28;20038;-78
2021/10/10 11:09:10;;;;;;;56.25;37.75;;;;;;;;;;4115278;28;20375;-78
2021/10/10 11:11:15;;;;;;;45.30;36.45;;;;;;;;;;4105961;28;20035;-77
2021/10/10 11:13:24;;;;;;;53.15;40.55;;;;;;;;;;4113597;28;20138;-78
2021/10/10 11:15:26;;;;;;;56.40;42.60;;;;;;;;;;4110579;28;20046;-78
2021/10/10 11:17:27;;;;;;;53.08;40.80;;;;;;;;;;4113794;28;20089;-77
2021/10/10 11:19:28;;;;;;;47.92;40.97;;;;;;;;;;4114468;28;20490;-78
2021/10/10 11:21:32;;;;;;;47.92;39.53;;;;;;;;;;4098491;28;20047;-78
2021/10/10 11:23:35;;;;;;;52.40;43.30;;;;;;;;;;4121293;28;20039;-77
2021/10/10 11:25:36;;;;;;;57.30;44.05;;;;;;;;;;4098716;28;20536;-78
2021/10/10 11:27:37;;;;;;;53.65;42.42;;;;;;;;;;4120270;28;20548;-78
2021/10/10 11:29:39;;;;;;;54.78;45.38;;;;;;;;;;4112411;28;20039;-78
2021/10/10 11:31:42;;;;;;;59.85;44.38;;;;;;;;;;4107446;28;20044;-78
2021/10/10 11:33:47;;;;;;;;;;;;;;;;;;4111759;28;20102;-77
2021/10/10 11:35:48;;;;;;;58.20;43.45;;;;;;;;;;4123208;28;19940;-78
2021/10/10 11:38:03;;;;;;;58.97;44.90;;;;;;;;;;4127685;28;20426;-77
2021/10/10 11:40:09;;;;;;;59.65;44.20;;;;;;;;;;4111033;28;20076;-78
2021/10/10 11:42:10;;;;;;;58.30;45.03;;;;;;;;;;4096268;28;20094;-78
2021/10/10 11:44:15;;;;;;;57.90;43.70;;;;;;;;;;4102250;28;20390;-78
2021/10/10 11:46:20;;;;;;;52.40;44.17;;;;;;;;;;4119451;28;20116;-78
2021/10/10 11:48:35;;;;;;;70.82;58.70;;;;;;;;;;4099939;28;21095;-76
2021/10/10 11:50:36;;;;;;;57.03;45.70;;;;;;;;;;4108994;28;20367;-77